createdAt,value
2024-04-16T00:00:09.507Z,1.23
2024-04-16T00:02:37.118Z,1.80
2024-04-16T00:05:04.212Z,1.38
2024-04-16T00:07:34.358Z,2.42
2024-04-16T00:10:01.506Z,1.73
2024-04-16T00:12:28.661Z,1.90
2024-04-16T00:14:55.923Z,1.80
2024-04-16T00:17:25.059Z,1.10
2024-04-16T00:19:52.070Z,1.00
2024-04-16T00:22:21.907Z,1.95
2024-04-16T00:24:48.904Z,0.90
2024-04-16T00:27:15.744Z,1.08
2024-04-16T00:29:43.983Z,1.13
2024-04-16T00:32:11.228Z,1.10
2024-04-16T00:34:38.134Z,1.05
2024-04-16T00:37:05.207Z,0.95
2024-04-16T00:39:32.214Z,0.90
2024-04-16T00:41:59.343Z,1.73
2024-04-16T00:44:26.226Z,1.20
2024-04-16T00:46:53.176Z,1.35
2024-04-16T00:49:20.120Z,0.80
2024-04-16T00:51:46.901Z,0.70
2024-04-16T00:54:13.909Z,1.10
2024-04-16T00:56:42.917Z,1.13
2024-04-16T00:59:09.880Z,0.85
2024-04-16T01:01:39.335Z,0.80
2024-04-16T01:04:06.602Z,0.60
2024-04-16T01:06:33.998Z,0.63
2024-04-16T01:09:01.364Z,0.80
2024-04-16T01:11:29.212Z,0.60
2024-04-16T01:13:56.901Z,0.55
2024-04-16T01:16:24.338Z,0.57
2024-04-16T01:18:51.621Z,0.50
2024-04-16T01:21:18.647Z,1.05
2024-04-16T01:23:45.742Z,0.65
2024-04-16T01:26:12.924Z,0.50
2024-04-16T01:28:40.186Z,0.90
2024-04-16T01:31:07.417Z,1.60
2024-04-16T01:33:34.487Z,0.63
2024-04-16T01:36:01.411Z,0.45
2024-04-16T01:38:28.622Z,0.35
2024-04-16T01:40:55.655Z,0.80
2024-04-16T01:43:25.602Z,1.17
2024-04-16T01:45:55.900Z,0.20
2024-04-16T01:48:23.002Z,0.95
2024-04-16T01:50:51.946Z,0.40
2024-04-16T01:53:19.218Z,0.20
2024-04-16T01:55:46.578Z,0.10
2024-04-16T01:58:13.811Z,0.50
2024-04-16T02:00:40.900Z,0.60
2024-04-16T02:03:08.369Z,1.10
2024-04-16T02:05:38.154Z,0.32
2024-04-16T02:08:05.425Z,0.40
2024-04-16T02:10:32.383Z,0.38
2024-04-16T02:12:59.542Z,0.20
2024-04-16T02:15:26.499Z,0.20
2024-04-16T02:17:53.522Z,1.45
2024-04-16T02:20:20.880Z,0.10
2024-04-16T02:22:47.543Z,0.30
2024-04-16T02:25:15.021Z,0.25
2024-04-16T02:27:42.268Z,0.20
2024-04-16T02:30:09.286Z,0.20
2024-04-16T02:32:36.420Z,0.10
2024-04-16T02:35:03.644Z,0.10
2024-04-16T02:37:30.774Z,0.22
2024-04-16T02:39:59.630Z,0.10
2024-04-16T02:42:26.897Z,0.20
2024-04-16T02:44:53.970Z,0.30
2024-04-16T02:47:21.055Z,0.20
2024-04-16T02:49:48.422Z,0.00
2024-04-16T02:52:15.475Z,0.10
2024-04-16T02:54:42.318Z,0.25
2024-04-16T02:57:09.362Z,0.20
2024-04-16T02:59:36.137Z,0.65
2024-04-16T03:02:02.938Z,0.20
2024-04-16T03:04:29.960Z,0.28
2024-04-16T03:06:57.157Z,0.10
2024-04-16T03:09:24.714Z,0.38
2024-04-16T03:11:51.709Z,0.20
2024-04-16T03:14:18.626Z,0.20
2024-04-16T03:16:45.851Z,0.20
2024-04-16T03:19:13.052Z,0.20
2024-04-16T03:21:39.883Z,0.20
2024-04-16T03:24:06.832Z,0.40
2024-04-16T03:26:33.904Z,0.20
2024-04-16T03:29:01.245Z,0.50
2024-04-16T03:31:28.215Z,0.10
2024-04-16T03:33:56.126Z,0.17
2024-04-16T03:36:25.070Z,0.05
2024-04-16T03:38:52.530Z,0.20
2024-04-16T03:41:19.615Z,0.20
2024-04-16T03:43:46.907Z,0.68
2024-04-16T03:46:14.414Z,0.10
2024-04-16T03:48:41.923Z,0.10
2024-04-16T03:51:09.065Z,0.20
2024-04-16T03:53:36.782Z,1.00
2024-04-16T03:56:04.102Z,0.00
2024-04-16T03:58:31.362Z,0.50
2024-04-16T04:01:02.223Z,0.20
2024-04-16T04:03:30.012Z,0.17
2024-04-16T04:05:57.543Z,0.15
2024-04-16T04:08:24.701Z,0.10
2024-04-16T04:10:51.826Z,0.10
2024-04-16T04:13:19.192Z,0.22
2024-04-16T04:15:46.270Z,0.10
2024-04-16T04:18:13.398Z,0.35
2024-04-16T04:20:40.462Z,0.10
2024-04-16T04:23:08.553Z,0.15
2024-04-16T04:25:35.549Z,0.38
2024-04-16T04:28:02.375Z,0.08
2024-04-16T04:30:29.301Z,0.00
2024-04-16T04:32:56.174Z,1.13
2024-04-16T04:35:23.011Z,0.40
2024-04-16T04:37:50.675Z,0.10
2024-04-16T04:40:17.559Z,0.10
2024-04-16T04:42:44.378Z,0.10
2024-04-16T04:45:11.234Z,0.10
2024-04-16T04:47:38.256Z,0.10
2024-04-16T04:50:05.746Z,0.13
2024-04-16T04:52:33.253Z,0.10
2024-04-16T04:55:03.642Z,0.20
2024-04-16T04:57:31.032Z,1.05
2024-04-16T04:59:58.379Z,0.10
2024-04-16T05:02:25.830Z,0.10
2024-04-16T05:04:52.831Z,0.30
2024-04-16T05:07:19.796Z,0.63
2024-04-16T05:09:46.664Z,0.20
2024-04-16T05:12:15.824Z,0.80
2024-04-16T05:14:43.181Z,0.10
2024-04-16T05:17:10.200Z,0.28
2024-04-16T05:19:37.837Z,0.20
2024-04-16T05:22:05.148Z,0.00
2024-04-16T05:24:32.281Z,0.60
2024-04-16T05:26:59.517Z,0.17
2024-04-16T05:29:26.631Z,0.20
2024-04-16T05:31:53.906Z,0.30
2024-04-16T05:34:21.313Z,1.00
2024-04-16T05:36:48.378Z,0.30
2024-04-16T05:39:16.746Z,0.35
2024-04-16T05:41:43.848Z,0.20
2024-04-16T05:44:12.206Z,0.30
2024-04-16T05:46:41.787Z,0.20
2024-04-16T05:49:09.742Z,0.55
2024-04-16T05:51:37.569Z,0.40
2024-04-16T05:54:08.208Z,0.20
2024-04-16T05:56:35.759Z,0.20
2024-04-16T05:59:03.212Z,0.20
2024-04-16T06:01:30.438Z,0.20
2024-04-16T06:03:57.752Z,0.80
2024-04-16T06:06:24.886Z,1.35
2024-04-16T06:08:51.936Z,0.40
2024-04-16T06:11:19.247Z,0.50
2024-04-16T06:13:48.136Z,0.20
2024-04-16T06:16:15.472Z,0.60
2024-04-16T06:18:43.802Z,0.40
2024-04-16T06:21:11.948Z,0.63
2024-04-16T06:23:41.148Z,0.45
2024-04-16T06:26:09.093Z,0.35
2024-04-16T06:28:36.159Z,1.02
2024-04-16T06:31:03.671Z,0.40
2024-04-16T06:33:31.993Z,0.73
2024-04-16T06:35:59.206Z,0.20
2024-04-16T06:38:26.926Z,0.82
2024-04-16T06:40:53.804Z,0.10
2024-04-16T06:43:21.115Z,0.30
2024-04-16T06:45:50.995Z,0.10
2024-04-16T06:48:18.225Z,0.65
2024-04-16T06:50:48.579Z,0.10
2024-04-16T06:53:16.109Z,1.13
2024-04-16T06:55:43.346Z,0.17
2024-04-16T06:58:10.633Z,0.10
2024-04-16T07:00:37.883Z,0.75
2024-04-16T07:03:05.080Z,0.20
2024-04-16T07:05:35.654Z,0.98
2024-04-16T07:08:02.773Z,0.63
2024-04-16T07:10:29.839Z,0.45
2024-04-16T07:12:56.865Z,0.17
2024-04-16T07:15:23.781Z,0.47
2024-04-16T07:17:51.026Z,0.57
2024-04-16T07:20:18.147Z,0.98
2024-04-16T07:22:45.548Z,0.57
2024-04-16T07:25:12.805Z,0.13
2024-04-16T07:27:39.974Z,0.30
2024-04-16T07:30:07.175Z,0.40
2024-04-16T07:32:34.017Z,0.73
2024-04-16T07:35:01.279Z,0.40
2024-04-16T07:37:28.299Z,0.40
2024-04-16T07:39:55.198Z,0.50
2024-04-16T07:42:22.089Z,0.38
2024-04-16T07:44:49.242Z,0.13
2024-04-16T07:47:16.377Z,0.47
2024-04-16T07:49:43.521Z,0.47
2024-04-16T07:52:10.664Z,1.33
2024-04-16T07:54:37.702Z,0.57
2024-04-16T07:57:05.032Z,0.45
2024-04-16T07:59:32.314Z,1.33
2024-04-16T08:01:59.558Z,0.60
2024-04-16T08:04:26.988Z,0.73
2024-04-16T08:06:54.061Z,0.40
2024-04-16T08:09:20.947Z,0.22
2024-04-16T08:11:50.884Z,0.60
2024-04-16T08:14:20.517Z,0.17
2024-04-16T08:16:47.470Z,0.20
2024-04-16T08:19:16.494Z,0.45
2024-04-16T08:21:44.227Z,0.30
2024-04-16T08:24:11.250Z,1.38
2024-04-16T08:26:38.749Z,0.60
2024-04-16T08:29:05.778Z,0.28
2024-04-16T08:31:32.523Z,0.82
2024-04-16T08:34:00.512Z,0.60
2024-04-16T08:36:27.549Z,0.50
2024-04-16T08:38:54.787Z,0.50
2024-04-16T08:41:22.100Z,0.98
2024-04-16T08:43:50.559Z,0.47
2024-04-16T08:46:17.906Z,0.30
2024-04-16T08:48:45.298Z,1.05
2024-04-16T08:51:14.324Z,0.60
2024-04-16T08:53:43.224Z,1.27
2024-04-16T08:56:13.348Z,0.85
2024-04-16T08:58:42.383Z,0.32
2024-04-16T09:01:10.081Z,0.47
2024-04-16T09:03:36.865Z,0.40
2024-04-16T09:06:05.390Z,0.20
2024-04-16T09:08:35.478Z,0.82
2024-04-16T09:11:02.525Z,0.63
2024-04-16T09:13:29.552Z,0.55
2024-04-16T09:15:56.898Z,0.85
2024-04-16T09:18:24.916Z,0.85
2024-04-16T09:20:52.083Z,0.88
2024-04-16T09:23:19.333Z,0.40
2024-04-16T09:25:46.712Z,0.52
2024-04-16T09:28:16.182Z,0.55
2024-04-16T09:30:54.520Z,0.40
2024-04-16T09:33:33.342Z,0.22
2024-04-16T09:36:05.242Z,1.27
2024-04-16T09:38:40.724Z,0.63
2024-04-16T09:41:08.145Z,0.60
2024-04-16T09:43:35.260Z,0.73
2024-04-16T09:46:02.606Z,0.60
2024-04-16T09:48:32.772Z,1.20
2024-04-16T09:51:04.147Z,0.50
2024-04-16T09:53:31.538Z,0.20
2024-04-16T09:56:00.575Z,0.82
2024-04-16T09:58:29.591Z,1.40
2024-04-16T10:00:58.017Z,1.48
2024-04-16T10:03:27.876Z,1.17
2024-04-16T10:05:57.483Z,0.70
2024-04-16T10:08:26.077Z,0.68
2024-04-16T10:10:55.120Z,0.38
2024-04-16T10:13:22.557Z,1.02
2024-04-16T10:15:49.690Z,0.50
2024-04-16T10:18:16.916Z,0.80
2024-04-16T10:20:50.660Z,0.32
2024-04-16T10:23:18.160Z,0.50
2024-04-16T10:25:52.592Z,0.70
2024-04-16T10:28:27.342Z,0.40
2024-04-16T10:31:12.867Z,0.20
2024-04-16T10:33:42.094Z,0.20
2024-04-16T10:36:12.273Z,0.40
2024-04-16T10:38:39.790Z,0.38
2024-04-16T10:41:06.707Z,0.28
2024-04-16T10:43:35.104Z,0.70
2024-04-16T10:46:07.104Z,0.77
2024-04-16T10:48:34.363Z,0.80
2024-04-16T10:51:01.562Z,0.98
2024-04-16T10:53:28.513Z,0.60
2024-04-16T10:55:56.017Z,0.40
2024-04-16T10:58:23.266Z,0.40
2024-04-16T11:00:56.567Z,0.70
2024-04-16T11:03:23.982Z,0.50
2024-04-16T11:05:51.287Z,0.50
2024-04-16T11:08:18.722Z,0.63
2024-04-16T11:10:51.687Z,0.32
2024-04-16T11:13:19.174Z,0.30
2024-04-16T11:15:46.534Z,0.63
2024-04-16T11:18:13.998Z,0.85
2024-04-16T11:20:41.337Z,1.13
2024-04-16T11:23:08.711Z,0.85
2024-04-16T11:25:35.915Z,0.32
2024-04-16T11:28:03.146Z,0.55
2024-04-16T11:30:30.189Z,0.77
2024-04-16T11:32:57.310Z,0.60
2024-04-16T11:35:28.181Z,1.08
2024-04-16T11:37:55.454Z,0.35
2024-04-16T11:40:22.395Z,0.63
2024-04-16T11:42:49.757Z,0.38
2024-04-16T11:45:16.817Z,1.00
2024-04-16T11:47:43.893Z,0.63
2024-04-16T11:50:12.146Z,0.57
2024-04-16T11:52:39.579Z,0.65
2024-04-16T11:55:06.875Z,0.65
2024-04-16T11:57:33.923Z,0.63
2024-04-16T12:00:01.587Z,0.47
2024-04-16T12:02:28.728Z,0.85
2024-04-16T12:04:55.988Z,0.60
2024-04-16T12:07:23.336Z,0.52
2024-04-16T12:09:50.525Z,0.38
2024-04-16T12:12:17.660Z,0.22
2024-04-16T12:14:47.367Z,1.45
2024-04-16T12:17:17.197Z,0.90
2024-04-16T12:19:44.456Z,0.88
2024-04-16T12:22:12.125Z,0.38
2024-04-16T12:24:38.987Z,0.65
2024-04-16T12:27:05.997Z,0.38
2024-04-16T12:29:32.782Z,1.02
2024-04-16T12:32:00.571Z,0.60
2024-04-16T12:34:28.459Z,0.40
2024-04-16T12:36:55.380Z,0.30
2024-04-16T12:39:22.860Z,0.70
2024-04-16T12:41:50.468Z,0.45
2024-04-16T12:44:17.573Z,0.73
2024-04-16T12:46:44.729Z,0.40
2024-04-16T12:49:11.711Z,0.80
2024-04-16T12:51:38.921Z,0.32
2024-04-16T12:54:06.289Z,0.47
2024-04-16T12:56:33.198Z,0.55
2024-04-16T12:59:00.413Z,0.43
2024-04-16T13:01:27.374Z,0.40
2024-04-16T13:03:54.936Z,0.50
2024-04-16T13:06:22.148Z,0.73
2024-04-16T13:08:50.662Z,0.95
2024-04-16T13:11:20.949Z,0.47
2024-04-16T13:13:48.184Z,0.30
2024-04-16T13:16:15.407Z,1.35
2024-04-16T13:18:43.126Z,0.10
2024-04-16T13:21:13.456Z,0.30
2024-04-16T13:23:40.829Z,0.40
2024-04-16T13:26:07.833Z,0.20
2024-04-16T13:28:35.823Z,0.57
2024-04-16T13:31:11.131Z,0.40
2024-04-16T13:33:38.261Z,0.10
2024-04-16T13:36:05.897Z,0.30
2024-04-16T13:38:35.543Z,0.30
2024-04-16T13:41:06.036Z,0.10
2024-04-16T13:43:32.859Z,1.08
2024-04-16T13:46:00.275Z,0.20
2024-04-16T13:48:27.725Z,0.60
2024-04-16T13:51:00.625Z,0.52
2024-04-16T13:53:28.911Z,0.38
2024-04-16T13:55:55.772Z,0.85
2024-04-16T13:58:22.686Z,0.95
2024-04-16T14:00:50.018Z,0.82
2024-04-16T14:03:16.859Z,0.47
2024-04-16T14:05:43.666Z,1.02
2024-04-16T14:08:10.482Z,1.00
2024-04-16T14:10:38.059Z,0.93
2024-04-16T14:13:05.851Z,0.60
2024-04-16T14:15:32.963Z,1.15
2024-04-16T14:18:00.462Z,0.90
2024-04-16T14:20:27.943Z,1.48
2024-04-16T14:22:55.463Z,0.75
2024-04-16T14:25:22.662Z,0.65
2024-04-16T14:27:49.806Z,0.80
2024-04-16T14:30:17.008Z,0.77
2024-04-16T14:32:44.022Z,0.90
2024-04-16T14:35:11.017Z,1.85
2024-04-16T14:37:38.016Z,0.63
2024-04-16T14:40:05.710Z,1.45
2024-04-16T14:42:32.557Z,0.50
2024-04-16T14:44:59.798Z,0.90
2024-04-16T14:47:26.680Z,1.30
2024-04-16T14:49:53.678Z,1.17
2024-04-16T14:52:20.681Z,0.47
2024-04-16T14:54:49.556Z,0.90
2024-04-16T14:57:22.916Z,0.80
2024-04-16T14:59:50.561Z,1.10
2024-04-16T15:02:17.511Z,0.60
2024-04-16T15:04:44.850Z,1.85
2024-04-16T15:07:11.804Z,0.65
2024-04-16T15:09:40.495Z,0.95
2024-04-16T15:12:07.733Z,0.90
2024-04-16T15:14:34.649Z,0.40
2024-04-16T15:17:01.848Z,0.82
2024-04-16T15:19:28.965Z,1.08
2024-04-16T15:21:56.007Z,0.32
2024-04-16T15:24:23.475Z,0.73
2024-04-16T15:26:50.555Z,1.17
2024-04-16T15:29:21.266Z,0.75
2024-04-16T15:31:48.239Z,0.35
2024-04-16T15:34:18.006Z,0.88
2024-04-16T15:36:45.178Z,1.05
2024-04-16T15:39:12.020Z,1.23
2024-04-16T15:41:39.494Z,0.60
2024-04-16T15:44:06.615Z,0.43
2024-04-16T15:46:33.965Z,0.80
2024-04-16T15:49:00.901Z,0.80
2024-04-16T15:51:30.320Z,0.50
2024-04-16T15:53:57.647Z,0.88
2024-04-16T15:56:34.377Z,0.80
2024-04-16T15:59:01.211Z,1.10
2024-04-16T16:01:32.911Z,0.70
2024-04-16T16:04:00.543Z,0.57
2024-04-16T16:06:27.623Z,0.98
2024-04-16T16:08:54.686Z,0.63
2024-04-16T16:11:22.030Z,0.80
2024-04-16T16:13:49.211Z,1.17
2024-04-16T16:16:16.049Z,0.50
2024-04-16T16:18:42.961Z,1.50
2024-04-16T16:21:10.252Z,1.23
2024-04-16T16:23:37.300Z,1.75
2024-04-16T16:26:04.632Z,0.50
2024-04-16T16:28:31.509Z,1.05
2024-04-16T16:30:58.736Z,0.80
2024-04-16T16:33:25.844Z,0.55
2024-04-16T16:35:53.348Z,0.55
2024-04-16T16:38:20.168Z,1.02
2024-04-16T16:40:47.297Z,0.63
2024-04-16T16:43:15.316Z,0.50
2024-04-16T16:45:42.461Z,0.60
2024-04-16T16:48:10.587Z,0.40
2024-04-16T16:50:37.549Z,0.45
2024-04-16T16:53:06.470Z,0.28
2024-04-16T16:55:33.664Z,0.65
2024-04-16T16:58:00.781Z,0.70
2024-04-16T17:00:28.212Z,1.23
2024-04-16T17:02:55.761Z,1.05
2024-04-16T17:05:23.480Z,0.65
2024-04-16T17:07:50.446Z,1.23
2024-04-16T17:10:17.580Z,0.77
2024-04-16T17:12:49.146Z,0.90
2024-04-16T17:15:16.708Z,0.90
2024-04-16T17:17:43.646Z,0.90
2024-04-16T17:20:11.342Z,0.50
2024-04-16T17:22:38.760Z,0.70
2024-04-16T17:25:06.060Z,0.25
2024-04-16T17:27:33.214Z,0.80
2024-04-16T17:30:00.444Z,0.47
2024-04-16T17:32:27.442Z,0.52
2024-04-16T17:34:54.637Z,0.30
2024-04-16T17:37:21.941Z,1.10
2024-04-16T17:39:50.528Z,1.27
2024-04-16T17:42:18.227Z,0.68
2024-04-16T17:44:45.242Z,1.45
2024-04-16T17:47:12.325Z,0.77
2024-04-16T17:49:41.519Z,1.00
2024-04-16T17:52:08.453Z,0.60
2024-04-16T17:54:38.375Z,1.17
2024-04-16T17:57:08.187Z,0.82
2024-04-16T17:59:35.342Z,1.52
2024-04-16T18:02:02.978Z,1.23
2024-04-16T18:04:30.046Z,1.13
2024-04-16T18:06:57.842Z,1.42
2024-04-16T18:09:25.090Z,0.98
2024-04-16T18:11:52.125Z,0.73
2024-04-16T18:14:22.587Z,2.17
2024-04-16T18:16:51.878Z,0.82
2024-04-16T18:19:20.768Z,1.02
2024-04-16T18:21:48.047Z,1.13
2024-04-16T18:24:16.416Z,1.60
2024-04-16T18:26:43.292Z,1.48
2024-04-16T18:29:10.508Z,0.75
2024-04-16T18:31:37.996Z,1.05
2024-04-16T18:34:05.160Z,1.05
2024-04-16T18:36:32.180Z,1.65
2024-04-16T18:38:59.161Z,1.95
2024-04-16T18:41:26.214Z,1.25
2024-04-16T18:43:53.470Z,0.93
2024-04-16T18:46:20.351Z,1.00
2024-04-16T18:48:47.379Z,1.15
2024-04-16T18:51:14.431Z,1.00
2024-04-16T18:53:41.245Z,1.65
2024-04-16T18:56:14.841Z,1.75
2024-04-16T18:58:41.848Z,1.10
2024-04-16T19:01:09.267Z,0.95
2024-04-16T19:03:36.339Z,1.75
2024-04-16T19:06:03.823Z,1.25
2024-04-16T19:08:31.161Z,1.00
2024-04-16T19:10:58.636Z,1.10
2024-04-16T19:13:25.825Z,0.93
2024-04-16T19:15:56.947Z,2.05
2024-04-16T19:18:25.657Z,0.90
2024-04-16T19:20:53.318Z,1.10
2024-04-16T19:23:25.785Z,1.10
2024-04-16T19:25:53.275Z,0.90
2024-04-16T19:28:23.188Z,1.27
2024-04-16T19:30:51.745Z,1.13
2024-04-16T19:33:19.041Z,1.33
2024-04-16T19:35:46.051Z,1.42
2024-04-16T19:38:13.023Z,1.27
2024-04-16T19:40:39.864Z,1.70
2024-04-16T19:43:07.173Z,1.85
2024-04-16T19:45:34.280Z,2.50
2024-04-16T19:48:03.007Z,1.27
2024-04-16T19:50:31.254Z,1.02
2024-04-16T19:52:58.522Z,0.93
2024-04-16T19:55:25.486Z,1.77
2024-04-16T19:57:52.639Z,1.60
2024-04-16T20:00:21.312Z,1.10
2024-04-16T20:02:49.084Z,0.90
2024-04-16T20:05:17.041Z,1.65
2024-04-16T20:07:44.384Z,1.80
2024-04-16T20:10:16.317Z,1.45
2024-04-16T20:12:43.550Z,1.80
2024-04-16T20:15:10.807Z,1.42
2024-04-16T20:17:38.297Z,1.60
2024-04-16T20:20:05.691Z,1.60
2024-04-16T20:22:37.151Z,1.23
2024-04-16T20:25:26.975Z,1.45
2024-04-16T20:27:53.694Z,1.25
2024-04-16T20:30:20.861Z,1.55
2024-04-16T20:32:48.914Z,1.92
2024-04-16T20:35:16.333Z,1.58
2024-04-16T20:37:43.136Z,1.85
2024-04-16T20:40:10.385Z,1.52
2024-04-16T20:42:37.281Z,1.77
2024-04-16T20:45:04.007Z,1.33
2024-04-16T20:47:31.009Z,1.85
2024-04-16T20:49:57.985Z,1.65
2024-04-16T20:52:25.380Z,1.50
2024-04-16T20:54:52.614Z,1.35
2024-04-16T20:57:19.492Z,1.40
2024-04-16T20:59:46.565Z,1.65
2024-04-16T21:02:13.397Z,1.50
2024-04-16T21:04:40.150Z,1.98
2024-04-16T21:07:07.648Z,1.70
2024-04-16T21:09:34.754Z,1.83
2024-04-16T21:12:04.831Z,1.40
2024-04-16T21:14:35.182Z,1.77
2024-04-16T21:17:08.143Z,1.70
2024-04-16T21:19:36.832Z,1.17
2024-04-16T21:22:04.011Z,1.80
2024-04-16T21:24:31.632Z,0.90
2024-04-16T21:26:58.730Z,1.85
2024-04-16T21:29:26.139Z,1.33
2024-04-16T21:31:53.557Z,1.58
2024-04-16T21:34:21.115Z,1.88
2024-04-16T21:36:48.515Z,1.67
2024-04-16T21:39:16.438Z,1.58
2024-04-16T21:41:44.884Z,1.70
2024-04-16T21:44:12.551Z,1.55
2024-04-16T21:46:41.592Z,1.45
2024-04-16T21:49:08.703Z,1.88
2024-04-16T21:51:35.791Z,1.20
2024-04-16T21:54:06.893Z,1.75
2024-04-16T21:56:34.935Z,1.83
2024-04-16T21:59:02.690Z,1.60
2024-04-16T22:01:31.611Z,2.03
2024-04-16T22:03:59.087Z,1.67
2024-04-16T22:06:27.286Z,1.30
2024-04-16T22:08:57.262Z,1.58
2024-04-16T22:11:24.635Z,1.55
2024-04-16T22:13:51.859Z,1.55
2024-04-16T22:16:18.842Z,1.50
2024-04-16T22:18:45.760Z,1.15
2024-04-16T22:21:12.724Z,1.58
2024-04-16T22:23:41.612Z,1.20
2024-04-16T22:26:10.316Z,1.73
2024-04-16T22:28:38.636Z,1.63
2024-04-16T22:31:08.410Z,1.05
2024-04-16T22:33:35.580Z,1.30
2024-04-16T22:36:06.931Z,1.35
2024-04-16T22:38:33.993Z,2.93
2024-04-16T22:41:01.044Z,1.67
2024-04-16T22:43:28.330Z,1.77
2024-04-16T22:45:56.438Z,1.83
2024-04-16T22:48:24.367Z,0.95
2024-04-16T22:50:51.969Z,1.30
2024-04-16T22:53:19.118Z,1.27
2024-04-16T22:55:47.122Z,1.00
2024-04-16T22:58:14.556Z,1.45
2024-04-16T23:00:41.962Z,1.27
2024-04-16T23:03:09.642Z,1.70
2024-04-16T23:05:37.145Z,1.15
2024-04-16T23:08:04.556Z,0.85
2024-04-16T23:10:31.822Z,1.10
2024-04-16T23:12:58.800Z,1.05
2024-04-16T23:15:25.830Z,1.35
2024-04-16T23:17:53.095Z,1.20
2024-04-16T23:20:23.188Z,1.05
2024-04-16T23:23:00.416Z,1.42
2024-04-16T23:25:27.764Z,1.00
2024-04-16T23:27:55.175Z,1.33
2024-04-16T23:30:22.203Z,0.90
2024-04-16T23:32:49.212Z,0.95
2024-04-16T23:35:16.787Z,1.15
2024-04-16T23:37:43.983Z,1.30
2024-04-16T23:40:11.011Z,1.40
2024-04-16T23:42:38.366Z,1.08
2024-04-16T23:45:07.289Z,1.42
2024-04-16T23:47:34.389Z,1.45
2024-04-16T23:50:01.790Z,1.50
2024-04-16T23:52:30.143Z,1.38
2024-04-16T23:54:57.317Z,0.95
2024-04-16T23:57:24.575Z,1.05
2024-04-16T23:59:51.489Z,1.55
